Time;durP1;ratioP1;P1;durP2;ratioP2;P2;SDS_P1;SDS_P2;PMS_P1;PMS_P2;Temp;Humidity;BMP_temperature;BMP_pressure;BME280_temperature;BME280_humidity;BME280_pressure;Samples;Min_cycle;Max_cycle;Signal;HPM_P1;HPM_P2
2021/06/23 00:02:22;;;;;;;22.55;3.83;;;;;;;;;;5004828;28;20028;-35
2021/06/23 00:04:49;;;;;;;19.98;3.72;;;;;;;;;;5006651;28;20052;-36
2021/06/23 00:07:16;;;;;;;13.45;3.58;;;;;;;;;;4985459;28;20077;-38
2021/06/23 00:09:44;;;;;;;14.65;3.00;;;;;;;;;;4999471;28;20058;-35
2021/06/23 00:12:16;;;;;;;16.38;2.95;;;;;;;;;;4999929;28;20061;-36
2021/06/23 00:14:44;;;;;;;18.10;3.50;;;;;;;;;;5009722;28;20034;-38
2021/06/23 00:17:11;;;;;;;14.93;3.33;;;;;;;;;;4983261;28;20110;-37
2021/06/23 00:19:38;;;;;;;10.60;2.70;;;;;;;;;;5010072;28;20057;-36
2021/06/23 00:22:06;;;;;;;13.88;3.33;;;;;;;;;;5011382;28;20030;-35
2021/06/23 00:24:33;;;;;;;8.27;2.90;;;;;;;;;;5007940;28;20037;-37
2021/06/23 00:27:06;;;;;;;15.32;3.35;;;;;;;;;;5010871;28;20046;-37
2021/06/23 00:29:33;;;;;;;11.98;3.00;;;;;;;;;;5011335;28;20042;-36
2021/06/23 00:32:00;;;;;;;14.63;2.63;;;;;;;;;;5010011;28;20083;-35
2021/06/23 00:34:29;;;;;;;6.95;2.50;;;;;;;;;;5010870;28;20045;-34
2021/06/23 00:36:59;;;;;;;11.07;3.20;;;;;;;;;;5010755;28;20087;-36
2021/06/23 00:39:26;;;;;;;6.70;2.55;;;;;;;;;;5011675;28;20373;-35
2021/06/23 00:41:53;;;;;;;20.10;3.10;;;;;;;;;;5011314;28;20025;-35
2021/06/23 00:44:20;;;;;;;9.50;2.47;;;;;;;;;;5005535;28;20029;-37
2021/06/23 00:46:48;;;;;;;11.65;2.60;;;;;;;;;;5006451;28;20116;-35
2021/06/23 00:49:15;;;;;;;14.35;2.80;;;;;;;;;;5001967;28;20034;-35
2021/06/23 00:51:43;;;;;;;9.65;2.78;;;;;;;;;;5001489;28;20073;-35
2021/06/23 00:54:11;;;;;;;13.45;3.20;;;;;;;;;;5004445;28;20034;-35
2021/06/23 00:56:38;;;;;;;19.77;3.58;;;;;;;;;;5003365;28;20022;-35
2021/06/23 00:59:06;;;;;;;11.32;4.25;;;;;;;;;;4982560;28;20041;-35
2021/06/23 01:01:34;;;;;;;11.40;3.88;;;;;;;;;;5006435;28;20018;-36
2021/06/23 01:04:02;;;;;;;12.68;4.40;;;;;;;;;;5001396;28;20113;-35
2021/06/23 01:06:29;;;;;;;12.10;3.70;;;;;;;;;;4989937;28;20114;-35
2021/06/23 01:08:57;;;;;;;15.27;4.53;;;;;;;;;;5002323;28;20025;-36
2021/06/23 01:11:28;;;;;;;13.80;4.20;;;;;;;;;;4997597;28;20085;-35
2021/06/23 01:13:57;;;;;;;13.43;4.47;;;;;;;;;;5000523;28;20057;-35
2021/06/23 01:16:26;;;;;;;12.77;4.10;;;;;;;;;;4988263;28;20034;-35
2021/06/23 01:18:53;;;;;;;14.73;4.35;;;;;;;;;;5003879;28;20032;-36
2021/06/23 01:21:20;;;;;;;10.20;4.00;;;;;;;;;;5010351;28;20081;-36
2021/06/23 01:23:48;;;;;;;16.80;4.00;;;;;;;;;;5009571;28;20097;-38
2021/06/23 01:26:15;;;;;;;16.15;4.93;;;;;;;;;;5006017;28;20089;-36
2021/06/23 01:28:42;;;;;;;13.30;4.53;;;;;;;;;;5005128;28;20038;-38
2021/06/23 01:31:09;;;;;;;16.90;3.70;;;;;;;;;;4997270;28;20429;-41
2021/06/23 01:33:36;;;;;;;15.57;3.70;;;;;;;;;;5009177;28;20041;-40
2021/06/23 01:36:04;;;;;;;10.30;3.00;;;;;;;;;;5008401;28;20083;-37
2021/06/23 01:38:31;;;;;;;15.85;4.20;;;;;;;;;;5005968;28;20111;-43
2021/06/23 01:40:58;;;;;;;11.23;3.78;;;;;;;;;;5007805;28;20377;-39
2021/06/23 01:43:25;;;;;;;11.75;3.65;;;;;;;;;;5007023;28;20488;-44
2021/06/23 01:45:52;;;;;;;10.68;3.13;;;;;;;;;;5005986;28;20593;-45
2021/06/23 01:48:20;;;;;;;9.63;3.10;;;;;;;;;;5005608;28;20056;-39
2021/06/23 01:50:53;;;;;;;11.88;3.38;;;;;;;;;;5007178;28;20021;-43
2021/06/23 01:53:20;;;;;;;8.90;3.25;;;;;;;;;;5005326;28;20029;-41
2021/06/23 01:55:49;;;;;;;10.23;3.15;;;;;;;;;;5003764;28;20034;-38
2021/06/23 01:58:16;;;;;;;10.70;3.40;;;;;;;;;;5008384;28;20025;-40
2021/06/23 02:00:43;;;;;;;9.70;3.10;;;;;;;;;;5001715;28;20094;-40
2021/06/23 02:03:24;;;;;;;11.70;2.80;;;;;;;;;;5003210;28;20085;-46
2021/06/23 02:06:02;;;;;;;12.05;3.00;;;;;;;;;;5004447;28;20838;-41
2021/06/23 02:08:32;;;;;;;7.40;2.85;;;;;;;;;;5006220;28;20026;-43
2021/06/23 02:11:08;;;;;;;7.38;2.75;;;;;;;;;;5008651;28;20113;-38
2021/06/23 02:13:41;;;;;;;7.40;2.70;;;;;;;;;;5004066;28;20037;-40
2021/06/23 02:16:12;;;;;;;10.27;2.90;;;;;;;;;;5002216;28;20022;-43
2021/06/23 02:18:42;;;;;;;6.68;2.78;;;;;;;;;;5008273;28;20017;-44
2021/06/23 02:21:12;;;;;;;5.82;2.63;;;;;;;;;;5011726;28;20018;-45
2021/06/23 02:23:42;;;;;;;8.63;2.88;;;;;;;;;;5009824;28;20009;-37
2021/06/23 02:26:10;;;;;;;6.30;2.33;;;;;;;;;;5011760;28;20041;-40
2021/06/23 02:28:37;;;;;;;9.88;2.65;;;;;;;;;;5009929;28;20537;-41
2021/06/23 02:31:04;;;;;;;4.32;2.17;;;;;;;;;;5007383;28;20021;-40
2021/06/23 02:33:32;;;;;;;5.13;2.65;;;;;;;;;;5012971;28;20037;-40
2021/06/23 02:35:59;;;;;;;8.18;2.45;;;;;;;;;;5013185;28;20022;-38
2021/06/23 02:38:26;;;;;;;5.35;2.40;;;;;;;;;;5013848;28;20049;-35
2021/06/23 02:40:54;;;;;;;5.85;2.70;;;;;;;;;;5006641;28;20023;-39
2021/06/23 02:43:21;;;;;;;8.52;2.50;;;;;;;;;;4995164;28;20019;-39
2021/06/23 02:45:49;;;;;;;8.07;2.70;;;;;;;;;;5009596;28;20524;-35
2021/06/23 02:48:16;;;;;;;14.20;2.58;;;;;;;;;;5012367;28;20068;-47
2021/06/23 02:50:50;;;;;;;4.28;2.17;;;;;;;;;;4995433;28;20026;-39
2021/06/23 02:53:17;;;;;;;11.38;3.00;;;;;;;;;;4994672;28;20101;-39
2021/06/23 02:55:44;;;;;;;10.60;2.60;;;;;;;;;;4995519;28;20105;-45
2021/06/23 02:58:13;;;;;;;6.30;2.60;;;;;;;;;;4994692;28;20041;-36
2021/06/23 03:00:41;;;;;;;7.63;3.05;;;;;;;;;;4995451;28;20498;-43
2021/06/23 03:03:08;;;;;;;6.68;2.53;;;;;;;;;;4994600;28;20037;-42
2021/06/23 03:05:35;;;;;;;6.47;2.83;;;;;;;;;;4995288;28;20098;-44
2021/06/23 03:08:02;;;;;;;4.72;2.33;;;;;;;;;;4994936;28;20073;-44
2021/06/23 03:10:29;;;;;;;8.20;2.72;;;;;;;;;;4995202;28;20018;-43
2021/06/23 03:12:56;;;;;;;8.70;2.88;;;;;;;;;;4994336;28;20549;-38
2021/06/23 03:15:24;;;;;;;5.68;2.70;;;;;;;;;;4995210;28;20122;-36
2021/06/23 03:17:51;;;;;;;9.30;3.00;;;;;;;;;;4994791;28;20033;-39
2021/06/23 03:20:18;;;;;;;4.78;2.70;;;;;;;;;;4994839;28;20068;-37
2021/06/23 03:22:45;;;;;;;7.80;3.20;;;;;;;;;;4994187;28;20101;-38
2021/06/23 03:25:12;;;;;;;5.70;2.75;;;;;;;;;;4994438;28;20023;-36
2021/06/23 03:27:39;;;;;;;4.40;2.70;;;;;;;;;;4994779;28;20520;-38
2021/06/23 03:30:07;;;;;;;6.85;3.22;;;;;;;;;;4994283;28;20026;-39
2021/06/23 03:32:34;;;;;;;4.43;2.70;;;;;;;;;;4994522;28;20084;-40
2021/06/23 03:35:01;;;;;;;7.13;3.05;;;;;;;;;;4993986;28;20457;-39
2021/06/23 03:37:28;;;;;;;5.15;2.75;;;;;;;;;;4994748;28;20501;-38
2021/06/23 03:39:55;;;;;;;7.05;3.20;;;;;;;;;;4976927;28;20073;-39
2021/06/23 03:42:22;;;;;;;6.30;3.13;;;;;;;;;;4994371;28;20116;-40
2021/06/23 03:44:49;;;;;;;3.65;2.45;;;;;;;;;;4994150;28;20504;-40
2021/06/23 03:47:16;;;;;;;5.30;2.63;;;;;;;;;;4994716;28;20114;-42
2021/06/23 03:49:43;;;;;;;4.38;2.70;;;;;;;;;;4993952;28;20019;-37
2021/06/23 03:52:10;;;;;;;4.93;2.85;;;;;;;;;;4994203;28;20678;-37
2021/06/23 03:54:37;;;;;;;5.22;2.55;;;;;;;;;;4993840;28;20134;-39
2021/06/23 03:57:05;;;;;;;6.22;2.70;;;;;;;;;;4994288;28;20033;-38
2021/06/23 03:59:31;;;;;;;5.13;2.42;;;;;;;;;;4994064;28;20028;-38
2021/06/23 04:01:58;;;;;;;6.18;2.55;;;;;;;;;;4993854;28;20478;-37
2021/06/23 04:04:26;;;;;;;6.82;2.50;;;;;;;;;;4994004;28;20053;-37
2021/06/23 04:06:53;;;;;;;4.80;2.60;;;;;;;;;;4993643;28;20053;-36
2021/06/23 04:09:20;;;;;;;4.57;2.90;;;;;;;;;;4994298;28;20068;-37
2021/06/23 04:11:47;;;;;;;6.18;2.50;;;;;;;;;;4993318;28;20374;-36
2021/06/23 04:14:14;;;;;;;4.32;2.42;;;;;;;;;;4993492;28;20018;-38
2021/06/23 04:16:41;;;;;;;4.75;2.65;;;;;;;;;;4993599;28;20085;-36
2021/06/23 04:19:08;;;;;;;4.32;2.53;;;;;;;;;;4993901;28;20021;-38
2021/06/23 04:21:35;;;;;;;3.67;2.38;;;;;;;;;;4993210;28;20110;-37
2021/06/23 04:24:02;;;;;;;4.93;2.50;;;;;;;;;;4993527;28;20106;-41
2021/06/23 04:26:29;;;;;;;3.42;2.58;;;;;;;;;;4992772;28;20121;-45
2021/06/23 04:28:56;;;;;;;6.45;2.35;;;;;;;;;;4993489;28;20023;-44
2021/06/23 04:31:23;;;;;;;4.97;2.60;;;;;;;;;;4993233;28;20088;-43
2021/06/23 04:33:50;;;;;;;4.55;2.35;;;;;;;;;;4992539;28;20026;-42
2021/06/23 04:36:18;;;;;;;4.13;2.33;;;;;;;;;;4992905;28;20113;-35
2021/06/23 04:38:45;;;;;;;2.95;1.90;;;;;;;;;;4975551;28;20046;-43
2021/06/23 04:41:12;;;;;;;2.92;2.38;;;;;;;;;;4993424;28;20030;-40
2021/06/23 04:43:39;;;;;;;4.18;2.50;;;;;;;;;;4992345;28;20555;-38
2021/06/23 04:46:06;;;;;;;3.20;2.47;;;;;;;;;;4993414;28;20034;-45
2021/06/23 04:48:33;;;;;;;3.67;2.25;;;;;;;;;;4992661;28;20363;-43
2021/06/23 04:51:00;;;;;;;3.35;2.22;;;;;;;;;;4993179;28;20113;-39
2021/06/23 04:53:27;;;;;;;2.80;2.33;;;;;;;;;;4992321;28;20032;-38
2021/06/23 04:55:55;;;;;;;3.15;2.05;;;;;;;;;;5006598;28;20030;-37
2021/06/23 04:58:22;;;;;;;1.90;1.70;;;;;;;;;;5011879;28;20493;-36
2021/06/23 05:00:50;;;;;;;3.28;2.20;;;;;;;;;;5012652;28;20033;-39
2021/06/23 05:03:17;;;;;;;4.03;1.95;;;;;;;;;;5012153;28;20104;-37
2021/06/23 05:05:57;;;;;;;4.13;1.95;;;;;;;;;;5012167;28;20021;-41
2021/06/23 05:08:27;;;;;;;2.58;1.90;;;;;;;;;;5012064;28;20269;-43
2021/06/23 05:10:54;;;;;;;4.18;2.03;;;;;;;;;;5012450;28;20018;-40
2021/06/23 05:13:25;;;;;;;2.75;2.00;;;;;;;;;;5012358;28;20030;-37
2021/06/23 05:15:54;;;;;;;2.35;2.00;;;;;;;;;;5011871;28;20033;-37
2021/06/23 05:18:21;;;;;;;2.80;1.90;;;;;;;;;;5012395;28;20077;-38
2021/06/23 05:20:48;;;;;;;3.35;1.88;;;;;;;;;;5011822;28;20037;-36
2021/06/23 05:23:15;;;;;;;2.50;1.70;;;;;;;;;;5012436;28;20026;-36
2021/06/23 05:25:43;;;;;;;3.50;1.90;;;;;;;;;;5011462;28;20524;-37
2021/06/23 05:28:09;;;;;;;4.72;2.08;;;;;;;;;;5012444;28;20038;-36
2021/06/23 05:30:36;;;;;;;4.70;1.95;;;;;;;;;;5003788;28;20436;-38
2021/06/23 05:33:03;;;;;;;3.03;1.90;;;;;;;;;;5012106;28;20385;-36
2021/06/23 05:35:30;;;;;;;3.47;1.98;;;;;;;;;;5011562;28;20042;-35
2021/06/23 05:37:57;;;;;;;2.22;1.70;;;;;;;;;;5012156;28;20026;-38
2021/06/23 05:40:24;;;;;;;2.45;1.70;;;;;;;;;;5011835;28;20032;-37
2021/06/23 05:42:51;;;;;;;2.83;1.73;;;;;;;;;;5011882;28;20029;-37
2021/06/23 05:45:18;;;;;;;2.97;1.90;;;;;;;;;;5011772;28;20033;-39
2021/06/23 05:47:45;;;;;;;3.40;2.00;;;;;;;;;;5011685;28;20022;-38
2021/06/23 05:50:13;;;;;;;2.42;1.70;;;;;;;;;;5012112;28;20438;-37
2021/06/23 05:52:40;;;;;;;1.85;1.50;;;;;;;;;;5011470;28;20026;-35
2021/06/23 05:55:07;;;;;;;3.05;2.10;;;;;;;;;;5011379;28;20034;-39
2021/06/23 05:57:34;;;;;;;2.40;1.77;;;;;;;;;;5011697;28;20386;-39
2021/06/23 06:00:01;;;;;;;2.85;1.80;;;;;;;;;;5011806;28;20457;-38
2021/06/23 06:02:28;;;;;;;2.22;1.67;;;;;;;;;;5011429;28;20390;-37
2021/06/23 06:04:55;;;;;;;2.67;1.80;;;;;;;;;;5011816;28;20038;-37
2021/06/23 06:07:22;;;;;;;2.85;1.85;;;;;;;;;;5011418;28;20037;-37
2021/06/23 06:09:49;;;;;;;3.10;1.90;;;;;;;;;;5011556;28;20576;-38
2021/06/23 06:12:16;;;;;;;2.20;1.80;;;;;;;;;;5010967;28;20681;-36
2021/06/23 06:14:44;;;;;;;1.50;1.40;;;;;;;;;;5011460;28;20473;-38
2021/06/23 06:17:11;;;;;;;2.80;1.70;;;;;;;;;;5011451;28;20036;-42
2021/06/23 06:19:39;;;;;;;3.33;1.60;;;;;;;;;;5011133;28;20358;-41
2021/06/23 06:22:06;;;;;;;3.42;1.80;;;;;;;;;;5011323;28;20072;-41
2021/06/23 06:24:32;;;;;;;2.58;1.50;;;;;;;;;;5010965;28;20030;-40
2021/06/23 06:26:59;;;;;;;2.42;1.50;;;;;;;;;;5011396;28;20042;-45
2021/06/23 06:29:26;;;;;;;3.63;1.55;;;;;;;;;;5010976;28;20033;-39
2021/06/23 06:31:53;;;;;;;1.67;1.40;;;;;;;;;;4993792;28;20481;-42
2021/06/23 06:34:20;;;;;;;1.85;1.50;;;;;;;;;;5010929;28;20074;-36
2021/06/23 06:36:48;;;;;;;3.80;1.63;;;;;;;;;;5011365;28;20054;-41
2021/06/23 06:39:15;;;;;;;1.75;1.30;;;;;;;;;;5010848;28;20029;-42
2021/06/23 06:41:42;;;;;;;1.83;1.60;;;;;;;;;;5011462;28;20022;-41
2021/06/23 06:44:09;;;;;;;2.30;1.70;;;;;;;;;;5011206;28;20060;-42
2021/06/23 06:46:37;;;;;;;2.13;1.40;;;;;;;;;;5011282;28;20022;-40
2021/06/23 06:49:04;;;;;;;2.15;1.63;;;;;;;;;;5010946;28;20025;-38
2021/06/23 06:51:31;;;;;;;1.88;1.58;;;;;;;;;;5011577;28;20064;-40
2021/06/23 06:53:59;;;;;;;2.17;1.30;;;;;;;;;;5010871;28;20444;-37
2021/06/23 06:56:26;;;;;;;2.13;1.40;;;;;;;;;;5010909;28;20026;-43
2021/06/23 06:58:53;;;;;;;3.45;1.40;;;;;;;;;;4996400;28;20032;-48
2021/06/23 07:01:20;;;;;;;2.92;1.38;;;;;;;;;;5014322;28;20033;-42
2021/06/23 07:03:47;;;;;;;3.50;1.80;;;;;;;;;;5014922;28;20037;-42
2021/06/23 07:06:14;;;;;;;2.78;1.58;;;;;;;;;;5014426;28;20022;-42
2021/06/23 07:08:41;;;;;;;1.70;1.48;;;;;;;;;;5014838;28;20452;-45
2021/06/23 07:11:08;;;;;;;1.95;1.48;;;;;;;;;;5014298;28;20049;-44
2021/06/23 07:13:35;;;;;;;3.30;1.35;;;;;;;;;;5014824;28;20030;-38
2021/06/23 07:16:02;;;;;;;1.50;1.13;;;;;;;;;;5013981;28;20033;-40
2021/06/23 07:18:29;;;;;;;1.70;1.58;;;;;;;;;;5014532;28;20022;-40
2021/06/23 07:20:56;;;;;;;1.52;1.40;;;;;;;;;;5014061;28;20030;-36
2021/06/23 07:23:23;;;;;;;1.67;1.58;;;;;;;;;;5014310;28;20022;-37
2021/06/23 07:25:50;;;;;;;2.22;1.30;;;;;;;;;;5014234;28;20024;-38
2021/06/23 07:28:24;;;;;;;1.77;1.25;;;;;;;;;;5013530;28;20080;-36
2021/06/23 07:30:51;;;;;;;1.40;1.20;;;;;;;;;;5014260;28;20018;-36
2021/06/23 07:33:18;;;;;;;1.50;1.17;;;;;;;;;;5013795;28;20025;-37
2021/06/23 07:38:30;;;;;;;2.05;1.48;;;;;;;;;;5013724;28;20084;-43
2021/06/23 07:41:06;;;;;;;1.85;1.33;;;;;;;;;;5014297;28;20428;-40
2021/06/23 07:43:34;;;;;;;2.05;1.45;;;;;;;;;;5013463;28;20025;-39
2021/06/23 07:46:03;;;;;;;1.85;1.25;;;;;;;;;;5013982;28;20113;-43
2021/06/23 07:48:32;;;;;;;2.10;1.40;;;;;;;;;;5013329;28;20077;-45
2021/06/23 07:51:10;;;;;;;1.85;1.30;;;;;;;;;;5014026;28;20041;-40
2021/06/23 07:56:09;;;;;;;1.60;1.38;;;;;;;;;;5014032;28;20041;-41
2021/06/23 08:10:26;;;;;;;2.35;1.45;;;;;;;;;;5012393;28;20092;-44
2021/06/23 08:12:37;;;;;;;1.58;1.30;;;;;;;;;;5007771;28;20413;-44
2021/06/23 08:15:04;;;;;;;1.73;1.30;;;;;;;;;;5013196;28;20033;-47
2021/06/23 08:17:31;;;;;;;1.65;1.40;;;;;;;;;;5013253;28;20049;-45
2021/06/23 08:19:59;;;;;;;1.73;1.30;;;;;;;;;;5012689;28;20026;-44
2021/06/23 08:22:26;;;;;;;1.50;1.30;;;;;;;;;;5013441;28;20026;-43
2021/06/23 08:24:52;;;;;;;3.25;1.60;;;;;;;;;;5013255;28;20026;-39
2021/06/23 08:27:19;;;;;;;3.22;1.35;;;;;;;;;;5012528;28;20449;-41
2021/06/23 08:29:47;;;;;;;3.65;1.42;;;;;;;;;;5013167;28;20026;-43
2021/06/23 08:32:14;;;;;;;1.65;1.45;;;;;;;;;;5012527;28;20041;-44
2021/06/23 08:34:40;;;;;;;1.67;1.45;;;;;;;;;;5012839;28;20033;-40
2021/06/23 08:37:07;;;;;;;1.58;1.40;;;;;;;;;;5012580;28;20036;-38
2021/06/23 08:39:34;;;;;;;1.48;1.20;;;;;;;;;;5012958;28;20029;-39
2021/06/23 08:42:01;;;;;;;1.70;1.40;;;;;;;;;;5012479;28;20088;-45
2021/06/23 08:44:28;;;;;;;1.30;1.17;;;;;;;;;;5013210;28;20022;-44
2021/06/23 08:46:56;;;;;;;2.10;1.48;;;;;;;;;;5012574;28;20018;-39
2021/06/23 08:49:23;;;;;;;3.00;1.30;;;;;;;;;;5012586;28;20097;-37
2021/06/23 08:51:50;;;;;;;1.77;1.67;;;;;;;;;;5012632;28;20029;-43
2021/06/23 08:54:17;;;;;;;3.80;1.65;;;;;;;;;;5012747;28;20042;-36
2021/06/23 08:56:44;;;;;;;2.97;1.50;;;;;;;;;;5012346;28;20061;-41
2021/06/23 08:59:11;;;;;;;2.97;1.40;;;;;;;;;;5011997;28;20049;-44
2021/06/23 09:01:39;;;;;;;1.73;1.40;;;;;;;;;;5012555;28;20096;-44
2021/06/23 09:04:10;;;;;;;1.60;1.50;;;;;;;;;;5011769;28;20028;-50
2021/06/23 09:06:44;;;;;;;1.75;1.10;;;;;;;;;;5012424;28;20477;-43
2021/06/23 09:09:19;;;;;;;2.17;1.20;;;;;;;;;;5011878;28;20033;-41
2021/06/23 09:11:46;;;;;;;1.73;1.30;;;;;;;;;;5012394;28;20551;-47
2021/06/23 09:14:14;;;;;;;2.08;1.52;;;;;;;;;;4994258;28;20397;-48
2021/06/23 09:17:07;;;;;;;1.77;1.45;;;;;;;;;;5012319;28;20032;-44
2021/06/23 09:19:33;;;;;;;;;;;;;;;;;;5006701;28;20462;-45
2021/06/23 09:22:00;;;;;;;1.95;1.45;;;;;;;;;;5012072;28;19960;-45
2021/06/23 09:24:42;;;;;;;2.17;1.30;;;;;;;;;;5011783;28;20029;-44
2021/06/23 09:27:23;;;;;;;1.92;1.73;;;;;;;;;;5012176;28;20057;-44
2021/06/23 09:29:53;;;;;;;2.13;1.50;;;;;;;;;;5011590;28;20030;-43
2021/06/23 09:32:23;;;;;;;3.15;1.30;;;;;;;;;;5012164;28;20109;-44
2021/06/23 09:34:53;;;;;;;1.55;1.25;;;;;;;;;;5012026;28;20040;-38
2021/06/23 09:37:25;;;;;;;1.52;1.20;;;;;;;;;;5012261;28;20018;-47
2021/06/23 09:40:10;;;;;;;3.22;1.20;;;;;;;;;;5011717;28;20026;-42
2021/06/23 09:42:41;;;;;;;1.70;1.20;;;;;;;;;;5012053;28;20022;-44
2021/06/23 09:45:09;;;;;;;3.30;1.33;;;;;;;;;;5012035;28;20106;-44
2021/06/23 09:47:37;;;;;;;7.13;1.38;;;;;;;;;;5011468;28;20026;-43
2021/06/23 09:50:06;;;;;;;2.05;1.25;;;;;;;;;;5011564;28;20033;-43
2021/06/23 09:52:35;;;;;;;2.42;1.42;;;;;;;;;;5010861;28;20026;-41
2021/06/23 09:55:02;;;;;;;2.28;1.40;;;;;;;;;;5011760;28;20042;-43
2021/06/23 09:57:29;;;;;;;3.90;1.17;;;;;;;;;;4993296;28;20168;-44
2021/06/23 10:00:14;;;;;;;1.42;1.10;;;;;;;;;;5011599;28;20100;-43
2021/06/23 10:02:41;;;;;;;1.23;1.10;;;;;;;;;;5011428;28;20022;-45
2021/06/23 10:05:20;;;;;;;1.50;1.20;;;;;;;;;;5011918;28;20026;-41
2021/06/23 10:07:48;;;;;;;1.30;1.20;;;;;;;;;;5011498;28;20026;-41
2021/06/23 10:10:17;;;;;;;2.33;1.20;;;;;;;;;;5011677;28;20072;-41
2021/06/23 10:12:46;;;;;;;2.00;1.40;;;;;;;;;;5011446;28;20025;-43
2021/06/23 10:15:14;;;;;;;1.67;1.25;;;;;;;;;;5011482;28;20034;-38
2021/06/23 10:17:41;;;;;;;1.95;1.10;;;;;;;;;;5011213;28;20101;-41
2021/06/23 10:20:08;;;;;;;1.27;1.17;;;;;;;;;;5011411;28;20033;-39
2021/06/23 10:22:36;;;;;;;4.50;1.23;;;;;;;;;;5011934;28;20069;-41
2021/06/23 10:25:05;;;;;;;2.80;1.15;;;;;;;;;;5011250;28;20386;-41
2021/06/23 10:27:34;;;;;;;3.70;1.50;;;;;;;;;;5011581;28;20046;-38
2021/06/23 10:30:01;;;;;;;1.55;1.35;;;;;;;;;;5010837;28;20038;-40
2021/06/23 10:32:29;;;;;;;1.60;1.23;;;;;;;;;;5012146;28;20034;-37
2021/06/23 10:34:56;;;;;;;3.42;1.42;;;;;;;;;;5014992;28;20060;-37
2021/06/23 10:37:24;;;;;;;2.97;1.08;;;;;;;;;;5015202;28;20022;-42
2021/06/23 10:39:52;;;;;;;2.92;1.17;;;;;;;;;;5014696;28;20037;-40
2021/06/23 10:42:23;;;;;;;1.33;1.20;;;;;;;;;;5015279;28;20033;-43
2021/06/23 10:44:57;;;;;;;3.05;1.20;;;;;;;;;;5014582;28;20029;-41
2021/06/23 10:47:30;;;;;;;1.88;1.38;;;;;;;;;;5024008;28;20017;-39
2021/06/23 10:49:57;;;;;;;2.03;1.52;;;;;;;;;;5034119;28;20091;-40
2021/06/23 10:52:28;;;;;;;1.85;1.38;;;;;;;;;;5034755;28;20104;-44
2021/06/23 10:54:58;;;;;;;1.35;1.25;;;;;;;;;;5034529;28;20469;-39
2021/06/23 10:57:27;;;;;;;1.58;1.23;;;;;;;;;;5034815;28;20025;-38
2021/06/23 10:59:55;;;;;;;1.83;1.30;;;;;;;;;;5034272;28;20093;-34
2021/06/23 11:02:30;;;;;;;1.70;1.40;;;;;;;;;;5004435;28;20072;-35
2021/06/23 11:05:02;;;;;;;7.43;1.20;;;;;;;;;;5014002;28;20028;-34
2021/06/23 11:07:41;;;;;;;2.97;1.50;;;;;;;;;;5013767;28;20030;-35
2021/06/23 11:10:14;;;;;;;5.35;1.45;;;;;;;;;;5010543;28;20021;-44
2021/06/23 11:12:44;;;;;;;2.95;1.30;;;;;;;;;;5012542;28;20022;-42
2021/06/23 11:15:18;;;;;;;1.85;1.38;;;;;;;;;;5013996;28;20038;-38
2021/06/23 11:17:50;;;;;;;5.85;1.55;;;;;;;;;;5023690;28;20018;-36
2021/06/23 11:20:20;;;;;;;7.22;1.40;;;;;;;;;;5033381;28;20037;-38
2021/06/23 11:22:48;;;;;;;3.92;1.50;;;;;;;;;;5031749;28;20064;-37
2021/06/23 11:25:21;;;;;;;3.88;1.40;;;;;;;;;;5029317;28;20021;-36
2021/06/23 11:28:06;;;;;;;2.78;1.77;;;;;;;;;;5013025;28;20129;-42
2021/06/23 11:30:34;;;;;;;1.83;1.33;;;;;;;;;;5013963;28;20030;-37
2021/06/23 11:33:19;;;;;;;1.60;1.30;;;;;;;;;;5011790;28;20022;-39
2021/06/23 11:35:46;;;;;;;2.08;1.30;;;;;;;;;;5013358;28;20029;-40
2021/06/23 11:38:13;;;;;;;3.30;1.35;;;;;;;;;;5013419;28;20029;-43
2021/06/23 11:40:40;;;;;;;2.08;1.20;;;;;;;;;;5012967;28;20025;-41
2021/06/23 11:43:07;;;;;;;1.65;1.40;;;;;;;;;;5013091;28;20029;-45
2021/06/23 11:45:34;;;;;;;3.75;1.52;;;;;;;;;;5011800;28;20025;-46
2021/06/23 11:48:01;;;;;;;5.28;1.50;;;;;;;;;;5012890;28;20053;-41
2021/06/23 11:50:28;;;;;;;2.60;1.58;;;;;;;;;;5012038;28;20088;-41
2021/06/23 11:52:55;;;;;;;2.58;1.30;;;;;;;;;;5009761;28;20018;-39
2021/06/23 11:55:25;;;;;;;2.55;1.42;;;;;;;;;;5013034;28;20067;-43
2021/06/23 11:57:53;;;;;;;2.25;1.33;;;;;;;;;;5010462;28;20030;-43
2021/06/23 12:00:21;;;;;;;4.63;1.40;;;;;;;;;;5012974;28;20109;-39
2021/06/23 12:02:48;;;;;;;1.50;1.27;;;;;;;;;;5012496;28;20025;-46
2021/06/23 12:05:15;;;;;;;3.47;1.40;;;;;;;;;;5013467;28;20436;-46
2021/06/23 12:07:45;;;;;;;3.47;1.40;;;;;;;;;;5013024;28;20116;-39
2021/06/23 12:10:13;;;;;;;2.88;1.38;;;;;;;;;;5009677;28;20030;-45
2021/06/23 12:12:40;;;;;;;5.35;1.27;;;;;;;;;;5012585;28;20053;-37
2021/06/23 12:15:10;;;;;;;6.22;1.58;;;;;;;;;;5009830;28;20117;-47
2021/06/23 12:17:37;;;;;;;6.45;1.40;;;;;;;;;;5012894;28;20517;-40
2021/06/23 12:20:06;;;;;;;9.18;1.60;;;;;;;;;;5011094;28;20109;-47
2021/06/23 12:22:34;;;;;;;6.20;1.30;;;;;;;;;;5010148;28;20075;-41
2021/06/23 12:25:01;;;;;;;7.47;1.45;;;;;;;;;;5012560;28;20018;-36
2021/06/23 12:27:28;;;;;;;4.63;1.58;;;;;;;;;;5012495;28;20054;-39
2021/06/23 12:29:55;;;;;;;3.08;1.15;;;;;;;;;;5012868;28;20093;-42
2021/06/23 12:32:22;;;;;;;3.42;1.48;;;;;;;;;;5010838;28;20029;-41
2021/06/23 12:34:51;;;;;;;2.30;1.13;;;;;;;;;;5011027;28;20384;-44
2021/06/23 12:37:18;;;;;;;2.00;1.20;;;;;;;;;;5012292;28;20061;-42
2021/06/23 12:39:45;;;;;;;2.20;1.45;;;;;;;;;;5012674;28;20408;-41
2021/06/23 12:42:12;;;;;;;4.82;1.30;;;;;;;;;;5011902;28;20108;-42
2021/06/23 12:44:39;;;;;;;2.38;1.10;;;;;;;;;;5011838;28;20104;-44
2021/06/23 12:47:07;;;;;;;2.67;1.40;;;;;;;;;;5011061;28;20022;-43
2021/06/23 12:49:34;;;;;;;3.55;1.10;;;;;;;;;;5012482;28;20578;-52
2021/06/23 12:52:02;;;;;;;3.58;1.38;;;;;;;;;;5012050;28;20025;-41
2021/06/23 12:54:29;;;;;;;1.58;1.27;;;;;;;;;;5012268;28;20141;-43
2021/06/23 12:56:56;;;;;;;1.80;1.33;;;;;;;;;;5010477;28;20026;-46
2021/06/23 12:59:24;;;;;;;2.20;1.30;;;;;;;;;;5010683;28;20061;-45
2021/06/23 13:01:51;;;;;;;2.08;1.25;;;;;;;;;;5012111;28;20026;-44
2021/06/23 13:04:18;;;;;;;1.50;1.10;;;;;;;;;;5010899;28;20036;-59
2021/06/23 13:06:45;;;;;;;1.73;1.20;;;;;;;;;;5012363;28;20022;-44
2021/06/23 13:09:12;;;;;;;3.50;1.10;;;;;;;;;;5009967;28;20017;-40
2021/06/23 13:11:39;;;;;;;1.70;1.27;;;;;;;;;;5011402;28;20026;-45
2021/06/23 13:14:06;;;;;;;1.75;0.80;;;;;;;;;;5011448;28;20026;-48
2021/06/23 13:16:34;;;;;;;4.45;1.45;;;;;;;;;;5011846;28;20036;-46
2021/06/23 13:19:01;;;;;;;6.63;1.30;;;;;;;;;;5010972;28;20029;-45
2021/06/23 13:21:27;;;;;;;6.53;1.00;;;;;;;;;;4991878;28;20018;-47
2021/06/23 13:23:55;;;;;;;2.95;1.33;;;;;;;;;;5010308;28;20650;-43
2021/06/23 13:26:22;;;;;;;2.55;1.30;;;;;;;;;;5009432;28;20030;-46
2021/06/23 13:28:50;;;;;;;1.55;1.10;;;;;;;;;;5011385;28;20481;-43
2021/06/23 13:31:17;;;;;;;1.70;1.40;;;;;;;;;;5011318;28;20025;-42
2021/06/23 13:33:45;;;;;;;2.00;1.23;;;;;;;;;;5009057;28;20061;-41
2021/06/23 13:36:13;;;;;;;2.95;1.30;;;;;;;;;;5011305;28;20026;-40
2021/06/23 13:38:40;;;;;;;5.90;1.40;;;;;;;;;;5010884;28;20429;-35
2021/06/23 13:41:07;;;;;;;6.30;1.70;;;;;;;;;;5005611;28;20474;-39
2021/06/23 13:43:35;;;;;;;7.45;1.50;;;;;;;;;;4998410;28;20030;-41
2021/06/23 13:46:03;;;;;;;3.33;1.40;;;;;;;;;;5007891;28;20354;-43
2021/06/23 13:48:30;;;;;;;4.85;1.40;;;;;;;;;;5009144;28;20177;-39
2021/06/23 13:50:57;;;;;;;4.55;1.30;;;;;;;;;;5006948;28;20105;-40
2021/06/23 13:53:24;;;;;;;4.28;1.40;;;;;;;;;;5009049;28;20014;-43
2021/06/23 13:55:51;;;;;;;3.92;1.33;;;;;;;;;;5010070;28;20042;-48
2021/06/23 13:58:18;;;;;;;5.32;1.38;;;;;;;;;;5008598;28;20022;-41
2021/06/23 14:00:47;;;;;;;5.47;1.20;;;;;;;;;;4993102;28;20034;-39
2021/06/23 14:03:15;;;;;;;4.22;1.30;;;;;;;;;;5010720;28;20026;-38
2021/06/23 14:05:43;;;;;;;1.60;1.20;;;;;;;;;;5010648;28;20477;-38
2021/06/23 14:08:11;;;;;;;1.52;1.30;;;;;;;;;;5013396;28;20117;-35
2021/06/23 14:10:39;;;;;;;2.90;1.30;;;;;;;;;;5013268;28;20531;-35
2021/06/23 14:13:06;;;;;;;3.58;1.48;;;;;;;;;;5013983;28;20044;-38
2021/06/23 14:15:33;;;;;;;3.20;1.17;;;;;;;;;;5014898;28;20505;-36
2021/06/23 14:18:00;;;;;;;2.20;1.42;;;;;;;;;;5014466;28;20064;-35
2021/06/23 14:20:28;;;;;;;2.35;1.30;;;;;;;;;;5000228;28;20113;-37
2021/06/23 14:22:55;;;;;;;2.25;1.50;;;;;;;;;;5013217;28;20382;-39
2021/06/23 14:25:22;;;;;;;2.65;1.45;;;;;;;;;;5014253;28;20037;-38
2021/06/23 14:27:51;;;;;;;3.47;1.40;;;;;;;;;;5014125;28;20046;-37
2021/06/23 14:30:20;;;;;;;6.03;1.67;;;;;;;;;;5011567;28;20041;-40
2021/06/23 14:32:48;;;;;;;2.85;1.50;;;;;;;;;;5007086;28;20057;-38
2021/06/23 14:35:16;;;;;;;1.50;1.20;;;;;;;;;;5013492;28;20073;-38
2021/06/23 14:37:43;;;;;;;5.07;1.60;;;;;;;;;;5009183;28;20023;-40
2021/06/23 14:40:10;;;;;;;3.50;1.55;;;;;;;;;;5000065;28;20022;-41
2021/06/23 14:42:40;;;;;;;5.60;1.58;;;;;;;;;;5001679;28;20033;-38
2021/06/23 14:45:08;;;;;;;7.68;1.30;;;;;;;;;;4996875;28;20065;-39
2021/06/23 14:47:35;;;;;;;3.95;1.30;;;;;;;;;;5012195;28;20022;-40
2021/06/23 14:50:04;;;;;;;4.07;1.33;;;;;;;;;;5003576;28;20034;-41
2021/06/23 14:52:31;;;;;;;9.75;1.70;;;;;;;;;;5007688;28;20038;-37
2021/06/23 14:54:59;;;;;;;5.50;2.10;;;;;;;;;;5010958;28;20473;-37
2021/06/23 14:57:26;;;;;;;6.55;1.60;;;;;;;;;;5009528;28;20509;-36
2021/06/23 14:59:53;;;;;;;5.97;1.80;;;;;;;;;;5007014;28;20028;-37
2021/06/23 15:02:20;;;;;;;5.68;1.80;;;;;;;;;;5003171;28;20022;-43
2021/06/23 15:04:47;;;;;;;5.60;2.00;;;;;;;;;;4995079;28;20026;-44